createdAt,value
2018-07-13T00:00:13.708Z,77.35
2018-07-13T00:02:42.927Z,76.90
2018-07-13T00:05:12.010Z,77.30
2018-07-13T00:07:40.877Z,76.95
2018-07-13T00:10:10.148Z,77.01
2018-07-13T00:12:38.755Z,77.18
2018-07-13T00:15:11.362Z,77.37
2018-07-13T00:17:40.602Z,76.72
2018-07-13T00:20:09.732Z,76.63
2018-07-13T00:22:39.767Z,76.58
2018-07-13T00:25:08.642Z,76.55
2018-07-13T00:27:37.406Z,77.02
2018-07-13T00:30:06.649Z,77.48
2018-07-13T00:32:36.083Z,77.37
2018-07-13T00:35:05.144Z,77.88
2018-07-13T00:37:34.637Z,78.36
2018-07-13T00:40:03.577Z,78.98
2018-07-13T00:42:32.637Z,79.77
2018-07-13T00:45:02.050Z,80.14
2018-07-13T00:47:31.131Z,79.52
2018-07-13T00:49:59.917Z,79.49
2018-07-13T00:52:29.424Z,79.67
2018-07-13T00:54:58.403Z,79.67
2018-07-13T00:57:28.029Z,80.46
2018-07-13T00:59:57.043Z,80.98
2018-07-13T01:02:25.982Z,80.39
2018-07-13T01:04:54.907Z,81.16
2018-07-13T01:07:24.192Z,80.81
2018-07-13T01:09:53.209Z,80.88
2018-07-13T01:12:22.727Z,80.75
2018-07-13T01:14:51.775Z,80.82
2018-07-13T01:17:24.214Z,80.85
2018-07-13T01:19:53.358Z,81.00
2018-07-13T01:22:22.275Z,81.09
2018-07-13T01:24:51.490Z,82.04
2018-07-13T01:27:20.835Z,81.89
2018-07-13T01:29:49.738Z,82.28
2018-07-13T01:32:19.598Z,83.33
2018-07-13T01:34:49.274Z,83.51
2018-07-13T01:37:18.501Z,83.35
2018-07-13T01:39:47.610Z,83.05
2018-07-13T01:42:16.619Z,83.39
2018-07-13T01:44:45.691Z,83.26
2018-07-13T01:47:14.966Z,82.50
2018-07-13T01:49:43.782Z,82.63
2018-07-13T01:52:12.875Z,82.51
2018-07-13T01:54:42.699Z,82.75
2018-07-13T01:57:11.855Z,82.71
2018-07-13T01:59:40.962Z,81.53
2018-07-13T02:02:09.992Z,80.94
2018-07-13T02:04:38.706Z,81.29
2018-07-13T02:07:07.757Z,81.85
2018-07-13T02:09:37.388Z,81.75
2018-07-13T02:12:06.531Z,81.95
2018-07-13T02:14:35.422Z,82.11
2018-07-13T02:17:05.180Z,82.87
2018-07-13T02:19:34.258Z,82.03
2018-07-13T02:22:03.733Z,82.82
2018-07-13T02:24:33.206Z,83.18
2018-07-13T02:27:02.016Z,82.40
2018-07-13T02:29:30.863Z,81.80
2018-07-13T02:32:00.192Z,81.75
2018-07-13T02:34:28.864Z,81.58
2018-07-13T02:36:58.045Z,81.29
2018-07-13T02:39:27.246Z,81.12
2018-07-13T02:41:55.997Z,81.00
2018-07-13T02:44:24.939Z,81.18
2018-07-13T02:46:54.451Z,81.33
2018-07-13T02:49:23.324Z,80.91
2018-07-13T02:51:52.932Z,81.18
2018-07-13T02:54:22.155Z,81.91
2018-07-13T02:56:51.662Z,82.66
2018-07-13T02:59:20.540Z,82.58
2018-07-13T03:01:49.962Z,82.34
2018-07-13T03:04:19.019Z,82.83
2018-07-13T03:06:48.344Z,83.36
2018-07-13T03:09:17.517Z,83.32
2018-07-13T03:11:46.635Z,82.85
2018-07-13T03:14:16.558Z,82.05
2018-07-13T03:16:45.594Z,81.17
2018-07-13T03:19:14.423Z,79.68
2018-07-13T03:21:43.115Z,78.27
2018-07-13T03:24:12.344Z,76.35
2018-07-13T03:26:41.288Z,73.66
2018-07-13T03:29:10.316Z,72.50
2018-07-13T03:31:39.932Z,70.04
2018-07-13T03:34:09.523Z,68.16
2018-07-13T03:36:38.593Z,66.06
2018-07-13T03:39:07.979Z,65.10
2018-07-13T03:41:37.131Z,63.48
2018-07-13T03:44:06.940Z,62.03
2018-07-13T03:46:36.356Z,60.38
2018-07-13T03:49:05.231Z,60.11
2018-07-13T03:51:34.539Z,58.73
2018-07-13T03:54:03.582Z,58.36
2018-07-13T03:56:32.819Z,57.46
2018-07-13T03:59:01.847Z,56.31
2018-07-13T04:01:31.135Z,56.74
2018-07-13T04:03:59.918Z,55.47
2018-07-13T04:06:28.640Z,54.60
2018-07-13T04:08:58.139Z,52.91
2018-07-13T04:11:27.821Z,51.76
2018-07-13T04:13:57.233Z,52.47
2018-07-13T04:16:26.669Z,51.22
2018-07-13T04:18:56.246Z,50.73
2018-07-13T04:21:25.346Z,51.09
2018-07-13T04:23:55.080Z,49.52
2018-07-13T04:26:24.076Z,46.71
2018-07-13T04:28:53.253Z,44.04
2018-07-13T04:31:22.563Z,43.61
2018-07-13T04:33:51.447Z,44.24
2018-07-13T04:36:20.122Z,44.29
2018-07-13T04:38:49.166Z,42.38
2018-07-13T04:41:18.218Z,42.61
2018-07-13T04:43:47.113Z,40.97
2018-07-13T04:46:17.351Z,39.40
2018-07-13T04:48:46.522Z,38.72
2018-07-13T04:51:15.493Z,37.72
2018-07-13T04:53:44.845Z,38.09
2018-07-13T04:56:14.253Z,37.42
2018-07-13T04:58:43.544Z,36.82
2018-07-13T05:01:13.051Z,35.53
2018-07-13T05:03:42.346Z,35.22
2018-07-13T05:06:11.399Z,35.88
2018-07-13T05:08:41.071Z,36.80
2018-07-13T05:11:10.139Z,36.68
2018-07-13T05:13:39.447Z,37.87
2018-07-13T05:16:09.207Z,37.85
2018-07-13T05:18:38.157Z,37.21
2018-07-13T05:21:07.468Z,38.46
2018-07-13T05:23:36.784Z,38.42
2018-07-13T05:26:06.070Z,38.50
2018-07-13T05:28:35.210Z,39.53
2018-07-13T05:31:04.505Z,38.13
2018-07-13T05:33:33.662Z,35.73
2018-07-13T05:36:02.855Z,35.25
2018-07-13T05:38:32.216Z,33.98
2018-07-13T05:41:01.484Z,34.02
2018-07-13T05:43:30.675Z,34.44
2018-07-13T05:46:04.552Z,34.99
2018-07-13T05:48:34.484Z,35.15
2018-07-13T05:51:03.669Z,34.40
2018-07-13T05:53:32.753Z,34.75
2018-07-13T05:56:02.568Z,34.60
2018-07-13T05:58:31.739Z,35.52
2018-07-13T06:01:00.906Z,36.50
2018-07-13T06:03:31.336Z,38.43
2018-07-13T06:06:01.075Z,38.88
2018-07-13T06:08:32.061Z,38.73
2018-07-13T06:11:03.088Z,37.99
2018-07-13T06:13:34.671Z,37.44
2018-07-13T06:16:06.564Z,37.06
2018-07-13T06:18:35.343Z,37.83
2018-07-13T06:21:04.742Z,37.90
2018-07-13T06:23:34.011Z,38.16
2018-07-13T06:26:03.186Z,38.07
2018-07-13T06:28:32.483Z,37.10
2018-07-13T06:31:01.763Z,35.66
2018-07-13T06:33:30.916Z,37.44
2018-07-13T06:35:59.621Z,36.16
2018-07-13T06:38:28.966Z,34.76
2018-07-13T06:40:59.307Z,33.84
2018-07-13T06:43:28.276Z,31.95
2018-07-13T06:45:57.826Z,30.83
2018-07-13T06:48:26.907Z,30.46
2018-07-13T06:50:55.998Z,32.19
2018-07-13T06:53:24.894Z,31.01
2018-07-13T06:55:54.437Z,30.06
2018-07-13T06:58:35.056Z,32.18
2018-07-13T07:01:06.878Z,31.71
2018-07-13T07:03:42.962Z,32.85
2018-07-13T07:06:13.884Z,33.33
2018-07-13T07:08:47.275Z,33.91
2018-07-13T07:11:16.562Z,32.81
2018-07-13T07:13:46.651Z,31.31
2018-07-13T07:16:16.179Z,31.42
2018-07-13T07:18:44.998Z,30.40
2018-07-13T07:21:13.788Z,31.43
2018-07-13T07:23:42.890Z,34.91
2018-07-13T07:26:12.195Z,36.23
2018-07-13T07:28:41.237Z,34.05
2018-07-13T07:31:10.187Z,32.52
2018-07-13T07:33:39.185Z,30.79
2018-07-13T07:36:08.506Z,30.86
2018-07-13T07:38:37.472Z,30.50
2018-07-13T07:41:06.781Z,28.60
2018-07-13T07:43:35.761Z,29.72
2018-07-13T07:46:04.752Z,28.83
2018-07-13T07:48:33.578Z,28.69
2018-07-13T07:51:02.639Z,28.16
2018-07-13T07:53:31.747Z,28.28
2018-07-13T07:56:02.355Z,27.12
2018-07-13T07:58:31.174Z,27.44
2018-07-13T08:01:00.314Z,28.93
2018-07-13T08:03:29.151Z,30.00
2018-07-13T08:05:58.127Z,31.05
2018-07-13T08:08:27.215Z,30.82
2018-07-13T08:10:56.519Z,30.67
2018-07-13T08:13:25.485Z,30.18
2018-07-13T08:15:54.231Z,32.34
2018-07-13T08:18:23.559Z,32.77
2018-07-13T08:20:52.478Z,32.66
2018-07-13T08:23:21.568Z,31.58
2018-07-13T08:25:51.015Z,30.16
2018-07-13T08:28:20.122Z,30.08
2018-07-13T08:30:51.941Z,32.04
2018-07-13T08:33:21.005Z,34.18
2018-07-13T08:35:49.872Z,35.97
2018-07-13T08:38:19.013Z,35.91
2018-07-13T08:40:48.278Z,37.72
2018-07-13T08:43:17.399Z,34.69
2018-07-13T08:45:46.288Z,33.80
2018-07-13T08:48:15.342Z,32.08
2018-07-13T08:50:44.462Z,32.41
2018-07-13T08:53:13.623Z,33.03
2018-07-13T08:55:42.967Z,33.16
2018-07-13T08:58:11.906Z,31.12
2018-07-13T09:00:41.147Z,32.24
2018-07-13T09:03:10.563Z,31.91
2018-07-13T09:05:40.009Z,31.33
2018-07-13T09:08:08.959Z,32.20
2018-07-13T09:10:38.480Z,30.81
2018-07-13T09:13:07.745Z,31.36
2018-07-13T09:15:36.956Z,30.16
2018-07-13T09:18:06.559Z,31.14
2018-07-13T09:20:35.559Z,31.79
2018-07-13T09:23:04.575Z,32.22
2018-07-13T09:25:33.995Z,33.54
2018-07-13T09:28:03.052Z,32.88
2018-07-13T09:30:31.907Z,35.17
2018-07-13T09:33:00.884Z,35.26
2018-07-13T09:35:29.831Z,35.73
2018-07-13T09:37:59.379Z,35.83
2018-07-13T09:40:28.758Z,33.57
2018-07-13T09:42:58.835Z,31.07
2018-07-13T09:45:27.671Z,30.45
2018-07-13T09:47:56.971Z,30.69
2018-07-13T09:50:25.949Z,32.16
2018-07-13T09:52:55.397Z,33.03
2018-07-13T09:55:24.367Z,32.84
2018-07-13T09:57:53.660Z,31.80
2018-07-13T10:00:22.829Z,31.52
2018-07-13T10:02:52.473Z,31.68
2018-07-13T10:05:21.660Z,32.13
2018-07-13T10:07:50.635Z,33.09
2018-07-13T10:10:19.752Z,33.53
2018-07-13T10:12:48.643Z,32.80
2018-07-13T10:15:17.736Z,30.68
2018-07-13T10:17:46.707Z,31.25
2018-07-13T10:20:15.622Z,32.87
2018-07-13T10:22:45.222Z,33.59
2018-07-13T10:25:14.471Z,35.08
2018-07-13T10:27:43.532Z,34.95
2018-07-13T10:30:13.839Z,34.74
2018-07-13T10:32:44.339Z,34.80
2018-07-13T10:35:13.551Z,33.89
2018-07-13T10:37:42.974Z,34.40
2018-07-13T10:40:11.898Z,32.77
2018-07-13T10:42:40.771Z,33.65
2018-07-13T10:45:09.673Z,34.25
2018-07-13T10:47:40.376Z,33.69
2018-07-13T10:50:09.164Z,33.33
2018-07-13T10:52:38.381Z,33.66
2018-07-13T10:55:09.638Z,33.80
2018-07-13T10:57:38.602Z,33.67
2018-07-13T11:00:08.206Z,31.71
2018-07-13T11:02:37.609Z,31.11
2018-07-13T11:05:06.415Z,31.05
2018-07-13T11:07:35.683Z,30.60
2018-07-13T11:10:05.617Z,30.91
2018-07-13T11:12:34.731Z,32.90
2018-07-13T11:15:03.650Z,31.46
2018-07-13T11:17:33.418Z,33.44
2018-07-13T11:20:02.423Z,32.76
2018-07-13T11:22:31.066Z,31.73
2018-07-13T11:25:00.247Z,32.85
2018-07-13T11:27:29.028Z,33.39
2018-07-13T11:29:57.991Z,32.64
2018-07-13T11:32:27.253Z,31.08
2018-07-13T11:34:56.254Z,31.59
2018-07-13T11:37:25.045Z,31.14
2018-07-13T11:39:54.367Z,34.77
2018-07-13T11:42:23.285Z,39.22
2018-07-13T11:44:52.558Z,42.48
2018-07-13T11:47:21.571Z,45.02
2018-07-13T11:49:51.028Z,44.06
2018-07-13T11:52:20.004Z,42.06
2018-07-13T11:54:49.390Z,43.82
2018-07-13T11:57:18.532Z,44.79
2018-07-13T11:59:47.970Z,47.06
2018-07-13T12:02:17.316Z,46.76
2018-07-13T12:04:46.957Z,46.70
2018-07-13T12:07:15.764Z,46.87
2018-07-13T12:09:44.791Z,46.84
2018-07-13T12:12:14.786Z,45.35
2018-07-13T12:14:44.131Z,47.32
2018-07-13T12:17:13.753Z,49.49
2018-07-13T12:19:42.567Z,52.46
2018-07-13T12:22:11.867Z,51.18
2018-07-13T12:24:41.285Z,51.82
2018-07-13T12:27:10.427Z,50.42
2018-07-13T12:29:39.236Z,51.19
2018-07-13T12:32:08.703Z,49.97
2018-07-13T12:34:38.670Z,51.71
2018-07-13T12:37:08.368Z,49.80
2018-07-13T12:39:37.545Z,50.32
2018-07-13T12:42:06.531Z,50.33
2018-07-13T12:44:35.570Z,50.81
2018-07-13T12:47:04.887Z,51.71
2018-07-13T12:49:33.542Z,52.10
2018-07-13T12:52:02.435Z,51.80
2018-07-13T12:54:31.704Z,52.02
2018-07-13T12:57:00.633Z,50.27
2018-07-13T12:59:30.925Z,48.78
2018-07-13T13:01:59.960Z,49.53
2018-07-13T13:04:28.707Z,49.16
2018-07-13T13:06:57.824Z,48.53
2018-07-13T13:09:27.045Z,48.48
2018-07-13T13:11:55.934Z,47.82
2018-07-13T13:14:25.129Z,47.10
2018-07-13T13:16:54.429Z,47.53
2018-07-13T13:19:23.616Z,47.63
2018-07-13T13:21:52.912Z,46.93
2018-07-13T13:24:21.844Z,46.72
2018-07-13T13:26:50.601Z,45.03
2018-07-13T13:29:22.930Z,46.02
2018-07-13T13:31:57.575Z,45.39
2018-07-13T13:34:26.691Z,43.42
2018-07-13T13:36:55.711Z,41.32
2018-07-13T13:39:24.528Z,41.16
2018-07-13T13:41:53.847Z,42.74
2018-07-13T13:44:22.871Z,42.33
2018-07-13T13:46:51.910Z,42.97
2018-07-13T13:49:21.628Z,41.54
2018-07-13T13:51:50.719Z,42.73
2018-07-13T13:54:19.718Z,45.08
2018-07-13T13:56:49.958Z,44.77
2018-07-13T13:59:19.211Z,43.92
2018-07-13T14:01:48.111Z,46.53
2018-07-13T14:04:17.555Z,56.31
2018-07-13T14:06:46.655Z,58.70
2018-07-13T14:09:15.870Z,60.12
2018-07-13T14:11:45.698Z,61.52
2018-07-13T14:14:14.726Z,61.62
2018-07-13T14:16:43.835Z,63.19
2018-07-13T14:19:13.251Z,60.88
2018-07-13T14:21:42.347Z,60.53
2018-07-13T14:24:11.341Z,61.67
2018-07-13T14:26:40.397Z,64.62
2018-07-13T14:29:09.263Z,62.89
2018-07-13T14:31:38.109Z,59.43
2018-07-13T14:34:08.026Z,60.18
2018-07-13T14:36:36.998Z,59.70
2018-07-13T14:39:08.363Z,56.89
2018-07-13T14:41:37.818Z,58.36
2018-07-13T14:44:06.978Z,56.54
2018-07-13T14:46:36.095Z,54.87
2018-07-13T14:49:05.075Z,54.48
2018-07-13T14:51:34.455Z,54.31
2018-07-13T14:54:03.880Z,53.54
2018-07-13T14:56:32.976Z,52.12
2018-07-13T14:59:01.993Z,53.74
2018-07-13T15:01:31.480Z,53.44
2018-07-13T15:04:00.594Z,50.76
2018-07-13T15:06:29.772Z,50.44
2018-07-13T15:08:59.443Z,50.71
2018-07-13T15:11:28.472Z,50.49
2018-07-13T15:13:57.467Z,50.24
2018-07-13T15:16:26.703Z,47.97
2018-07-13T15:18:55.874Z,47.96
2018-07-13T15:21:24.971Z,44.90
2018-07-13T15:23:54.903Z,44.93
2018-07-13T15:26:23.944Z,44.54
2018-07-13T15:28:52.883Z,44.28
2018-07-13T15:31:22.004Z,44.77
2018-07-13T15:33:50.971Z,43.41
2018-07-13T15:36:20.066Z,42.90
2018-07-13T15:38:49.456Z,43.23
2018-07-13T15:41:18.359Z,44.15
2018-07-13T15:43:47.472Z,45.17
2018-07-13T15:46:16.589Z,44.50
2018-07-13T15:48:45.635Z,46.80
2018-07-13T15:51:14.469Z,45.23
2018-07-13T15:53:44.318Z,45.02
2018-07-13T15:56:14.367Z,47.30
2018-07-13T15:58:43.555Z,47.04
2018-07-13T16:01:12.461Z,46.06
2018-07-13T16:03:41.487Z,46.36
2018-07-13T16:06:10.749Z,46.90
2018-07-13T16:08:39.896Z,46.78
2018-07-13T16:11:08.956Z,47.19
2018-07-13T16:13:37.971Z,46.47
2018-07-13T16:16:07.150Z,46.14
2018-07-13T16:18:36.414Z,46.20
2018-07-13T16:21:05.345Z,45.82
2018-07-13T16:23:34.416Z,47.06
2018-07-13T16:26:03.334Z,46.13
2018-07-13T16:28:32.691Z,47.01
2018-07-13T16:31:01.747Z,46.38
2018-07-13T16:33:31.512Z,46.63
2018-07-13T16:36:00.830Z,45.70
2018-07-13T16:38:30.555Z,45.02
2018-07-13T16:40:59.795Z,46.53
2018-07-13T16:43:30.703Z,47.61
2018-07-13T16:46:00.792Z,48.05
2018-07-13T16:48:29.614Z,48.36
2018-07-13T16:50:58.633Z,48.04
2018-07-13T16:53:27.808Z,47.87
2018-07-13T16:55:56.701Z,48.46
2018-07-13T16:58:25.901Z,49.59
2018-07-13T17:00:54.831Z,51.12
2018-07-13T17:03:24.042Z,51.08
2018-07-13T17:05:53.904Z,51.23
2018-07-13T17:08:24.173Z,51.47
2018-07-13T17:10:53.208Z,51.66
2018-07-13T17:13:22.187Z,53.05
2018-07-13T17:15:51.014Z,55.69
2018-07-13T17:18:20.299Z,56.53
2018-07-13T17:20:49.264Z,56.18
2018-07-13T17:23:18.470Z,55.69
2018-07-13T17:25:47.163Z,56.32
2018-07-13T17:28:16.267Z,55.95
2018-07-13T17:30:45.198Z,55.01
2018-07-13T17:33:14.187Z,56.37
2018-07-13T17:35:42.994Z,56.30
2018-07-13T17:38:12.011Z,56.31
2018-07-13T17:40:42.083Z,57.22
2018-07-13T17:43:11.254Z,57.60
2018-07-13T17:45:40.159Z,57.41
2018-07-13T17:48:09.206Z,57.44
2018-07-13T17:50:38.123Z,56.72
2018-07-13T17:53:07.087Z,57.81
2018-07-13T17:55:36.247Z,57.62
2018-07-13T17:58:05.247Z,57.77
2018-07-13T18:00:34.900Z,57.42
2018-07-13T18:03:03.962Z,57.57
2018-07-13T18:05:33.023Z,57.69
2018-07-13T18:08:02.139Z,56.51
2018-07-13T18:10:31.631Z,57.56
2018-07-13T18:13:00.815Z,57.60
2018-07-13T18:15:30.040Z,57.80
2018-07-13T18:17:59.124Z,57.87
2018-07-13T18:20:28.292Z,58.21
2018-07-13T18:22:57.670Z,58.06
2018-07-13T18:25:26.805Z,57.74
2018-07-13T18:27:55.716Z,59.36
2018-07-13T18:30:24.888Z,59.71
2018-07-13T18:32:53.819Z,60.10
2018-07-13T18:35:22.623Z,59.43
2018-07-13T18:37:51.806Z,60.00
2018-07-13T18:40:20.688Z,59.74
2018-07-13T18:42:49.669Z,60.29
2018-07-13T18:45:18.898Z,60.28
2018-07-13T18:47:47.593Z,60.30
2018-07-13T18:50:16.680Z,60.08
2018-07-13T18:52:45.599Z,60.83
2018-07-13T18:55:14.451Z,60.80
2018-07-13T18:57:43.331Z,60.74
2018-07-13T19:00:12.589Z,60.53
2018-07-13T19:02:41.643Z,60.57
2018-07-13T19:05:10.432Z,60.91
2018-07-13T19:07:39.753Z,62.01
2018-07-13T19:10:08.645Z,62.38
2018-07-13T19:12:37.436Z,62.40
2018-07-13T19:15:06.799Z,62.98
2018-07-13T19:17:35.721Z,62.91
2018-07-13T19:20:04.593Z,63.34
2018-07-13T19:22:33.600Z,63.53
2018-07-13T19:25:02.263Z,63.22
2018-07-13T19:27:31.343Z,63.84
2018-07-13T19:30:00.761Z,64.08
2018-07-13T19:32:29.585Z,64.19
2018-07-13T19:34:58.447Z,64.60
2018-07-13T19:37:28.530Z,64.93
2018-07-13T19:39:57.582Z,65.77
2018-07-13T19:42:27.284Z,66.25
2018-07-13T19:44:56.603Z,66.80
2018-07-13T19:47:26.603Z,67.13
2018-07-13T19:49:55.924Z,65.92
2018-07-13T19:52:25.735Z,66.75
2018-07-13T19:54:55.158Z,67.28
2018-07-13T19:57:24.371Z,67.16
2018-07-13T19:59:53.649Z,67.43
2018-07-13T20:02:22.603Z,67.22
2018-07-13T20:04:51.617Z,67.34
2018-07-13T20:07:20.629Z,67.69
2018-07-13T20:09:49.702Z,67.75
2018-07-13T20:12:19.139Z,68.25
2018-07-13T20:14:48.142Z,67.93
2018-07-13T20:17:17.030Z,68.16
2018-07-13T20:19:45.883Z,68.29
2018-07-13T20:22:15.192Z,68.26
2018-07-13T20:24:44.091Z,68.37
2018-07-13T20:27:12.795Z,67.86
2018-07-13T20:29:41.918Z,67.01
2018-07-13T20:32:10.877Z,67.11
2018-07-13T20:34:40.453Z,66.19
2018-07-13T20:37:10.096Z,66.34
2018-07-13T20:39:39.354Z,66.20
2018-07-13T20:42:08.571Z,66.11
2018-07-13T20:44:37.398Z,66.24
2018-07-13T20:47:06.852Z,66.48
2018-07-13T20:49:35.806Z,65.86
2018-07-13T20:52:06.106Z,66.69
2018-07-13T20:54:35.202Z,66.20
2018-07-13T20:57:03.852Z,66.90
2018-07-13T20:59:32.904Z,66.03
2018-07-13T21:02:01.791Z,66.46
2018-07-13T21:04:30.862Z,66.56
2018-07-13T21:07:00.038Z,66.45
2018-07-13T21:09:28.914Z,66.21
2018-07-13T21:11:57.743Z,66.11
2018-07-13T21:14:26.574Z,65.60
2018-07-13T21:16:55.635Z,65.93
2018-07-13T21:19:25.230Z,66.65
2018-07-13T21:21:54.363Z,65.76
2018-07-13T21:24:23.648Z,65.79
2018-07-13T21:26:52.587Z,65.91
2018-07-13T21:29:21.554Z,65.93
2018-07-13T21:31:50.735Z,66.34
2018-07-13T21:34:19.859Z,67.13
2018-07-13T21:36:48.731Z,67.06
2018-07-13T21:39:17.722Z,67.53
2018-07-13T21:41:46.465Z,68.64
2018-07-13T21:44:15.841Z,69.32
2018-07-13T21:46:44.882Z,69.47
2018-07-13T21:49:13.879Z,69.92
2018-07-13T21:51:43.208Z,69.48
2018-07-13T21:54:12.082Z,69.55
2018-07-13T21:56:41.591Z,69.90
2018-07-13T21:59:10.723Z,69.83
2018-07-13T22:01:39.760Z,70.02
2018-07-13T22:04:08.545Z,70.69
2018-07-13T22:06:37.754Z,70.73
2018-07-13T22:09:07.047Z,70.61
2018-07-13T22:11:36.075Z,70.60
2018-07-13T22:14:05.173Z,70.90
2018-07-13T22:16:34.778Z,71.25
2018-07-13T22:19:04.091Z,71.20
2018-07-13T22:21:33.627Z,70.85
2018-07-13T22:24:02.940Z,71.19
2018-07-13T22:26:31.826Z,71.44
2018-07-13T22:29:00.699Z,71.07
2018-07-13T22:31:29.995Z,70.87
2018-07-13T22:33:58.867Z,70.49
2018-07-13T22:36:27.800Z,70.42
2018-07-13T22:38:56.849Z,69.73
2018-07-13T22:41:26.262Z,70.09
2018-07-13T22:43:55.645Z,69.45
2018-07-13T22:46:25.266Z,69.75
2018-07-13T22:48:54.334Z,69.76
2018-07-13T22:51:23.595Z,69.55
2018-07-13T22:53:53.311Z,69.26
2018-07-13T22:56:22.708Z,69.20
2018-07-13T22:58:51.716Z,69.50
2018-07-13T23:01:21.263Z,67.99
2018-07-13T23:03:50.019Z,67.93
2018-07-13T23:06:19.188Z,66.82
2018-07-13T23:08:48.152Z,66.94
2018-07-13T23:11:17.160Z,66.44
2018-07-13T23:13:46.217Z,65.88
2018-07-13T23:16:15.235Z,65.93
2018-07-13T23:18:43.987Z,65.83
2018-07-13T23:21:13.465Z,64.47
2018-07-13T23:23:42.476Z,65.04
2018-07-13T23:26:11.313Z,65.06
2018-07-13T23:28:41.788Z,64.67
2018-07-13T23:31:10.871Z,65.04
2018-07-13T23:33:40.143Z,64.36
2018-07-13T23:36:09.276Z,63.90
2018-07-13T23:38:38.378Z,63.82
2018-07-13T23:41:07.565Z,63.38
2018-07-13T23:43:36.766Z,62.42
2018-07-13T23:46:05.962Z,63.13
2018-07-13T23:48:35.150Z,62.29
2018-07-13T23:51:05.568Z,62.22
2018-07-13T23:53:34.577Z,61.71
2018-07-13T23:56:04.388Z,61.67
2018-07-13T23:58:33.699Z,62.25
